createdAt,value
2018-12-16T00:01:42.216Z,2.34
2018-12-16T00:04:09.328Z,2.55
2018-12-16T00:06:36.524Z,2.60
2018-12-16T00:09:05.531Z,2.50
2018-12-16T00:11:32.861Z,2.45
2018-12-16T00:13:59.983Z,2.54
2018-12-16T00:16:27.094Z,2.61
2018-12-16T00:18:54.168Z,2.60
2018-12-16T00:21:21.296Z,2.55
2018-12-16T00:23:48.633Z,2.56
2018-12-16T00:26:15.762Z,2.61
2018-12-16T00:28:42.862Z,2.73
2018-12-16T00:31:10.013Z,2.66
2018-12-16T00:33:38.147Z,2.65
2018-12-16T00:36:05.234Z,2.73
2018-12-16T00:38:32.383Z,2.82
2018-12-16T00:40:59.550Z,2.67
2018-12-16T00:43:26.659Z,2.67
2018-12-16T00:45:54.721Z,2.70
2018-12-16T00:48:21.916Z,2.73
2018-12-16T00:50:49.092Z,2.65
2018-12-16T00:53:16.712Z,2.64
2018-12-16T00:55:43.866Z,2.61
2018-12-16T00:58:10.969Z,2.50
2018-12-16T01:00:38.033Z,2.54
2018-12-16T01:03:05.219Z,2.55
2018-12-16T01:05:32.482Z,2.57
2018-12-16T01:07:59.637Z,2.66
2018-12-16T01:10:26.784Z,2.75
2018-12-16T01:12:54.172Z,2.55
2018-12-16T01:15:21.371Z,2.61
2018-12-16T01:17:48.848Z,2.75
2018-12-16T01:20:16.076Z,2.75
2018-12-16T01:22:43.680Z,2.70
2018-12-16T01:25:11.218Z,2.73
2018-12-16T01:27:38.484Z,2.66
2018-12-16T01:30:06.026Z,2.69
2018-12-16T01:32:33.295Z,2.66
2018-12-16T01:35:00.472Z,2.78
2018-12-16T01:37:27.604Z,2.88
2018-12-16T01:39:54.883Z,2.92
2018-12-16T01:42:21.969Z,2.66
2018-12-16T01:44:49.167Z,2.75
2018-12-16T01:47:16.241Z,2.79
2018-12-16T01:49:44.160Z,2.88
2018-12-16T01:52:11.297Z,2.93
2018-12-16T01:54:38.385Z,2.92
2018-12-16T01:57:05.486Z,2.81
2018-12-16T01:59:32.821Z,2.69
2018-12-16T02:01:59.976Z,2.68
2018-12-16T02:04:27.195Z,2.70
2018-12-16T02:06:55.013Z,2.51
2018-12-16T02:09:22.228Z,2.47
2018-12-16T02:11:49.500Z,2.51
2018-12-16T02:14:16.635Z,2.24
2018-12-16T02:16:44.472Z,2.28
2018-12-16T02:19:11.729Z,2.33
2018-12-16T02:21:38.984Z,2.29
2018-12-16T02:24:06.108Z,2.27
2018-12-16T02:26:33.464Z,2.22
2018-12-16T02:29:00.528Z,2.14
2018-12-16T02:31:27.591Z,2.13
2018-12-16T02:33:54.679Z,2.14
2018-12-16T02:36:21.761Z,2.12
2018-12-16T02:38:48.904Z,2.07
2018-12-16T02:41:16.123Z,2.05
2018-12-16T02:43:43.287Z,2.03
2018-12-16T02:46:10.410Z,2.03
2018-12-16T02:48:37.505Z,1.95
2018-12-16T02:51:04.770Z,2.18
2018-12-16T02:53:31.818Z,2.03
2018-12-16T02:56:00.148Z,1.88
2018-12-16T02:58:27.304Z,1.87
2018-12-16T03:00:54.393Z,1.96
2018-12-16T03:03:21.512Z,1.81
2018-12-16T03:05:48.807Z,1.70
2018-12-16T03:08:16.113Z,1.73
2018-12-16T03:10:43.698Z,1.78
2018-12-16T03:13:10.847Z,1.96
2018-12-16T03:15:38.416Z,1.92
2018-12-16T03:18:05.576Z,1.90
2018-12-16T03:20:32.811Z,1.93
2018-12-16T03:22:59.939Z,1.99
2018-12-16T03:25:27.079Z,1.77
2018-12-16T03:27:55.297Z,1.64
2018-12-16T03:30:23.430Z,1.64
2018-12-16T03:32:50.865Z,1.65
2018-12-16T03:35:18.207Z,1.70
2018-12-16T03:37:45.958Z,1.80
2018-12-16T03:40:13.176Z,1.63
2018-12-16T03:42:40.381Z,1.49
2018-12-16T03:45:07.513Z,1.46
2018-12-16T03:47:34.667Z,1.44
2018-12-16T03:50:01.894Z,1.58
2018-12-16T03:52:29.060Z,1.77
2018-12-16T03:54:56.181Z,1.89
2018-12-16T03:57:23.656Z,1.82
2018-12-16T03:59:52.659Z,1.79
2018-12-16T04:02:19.795Z,1.72
2018-12-16T04:04:46.902Z,1.69
2018-12-16T04:07:14.677Z,1.60
2018-12-16T04:09:42.762Z,1.48
2018-12-16T04:12:09.833Z,1.56
2018-12-16T04:14:37.068Z,1.67
2018-12-16T04:17:05.144Z,1.72
2018-12-16T04:19:32.215Z,1.78
2018-12-16T04:21:59.333Z,1.93
2018-12-16T04:24:26.398Z,1.98
2018-12-16T04:26:53.455Z,2.07
2018-12-16T04:29:20.535Z,2.11
2018-12-16T04:31:47.645Z,2.05
2018-12-16T04:34:14.756Z,2.15
2018-12-16T04:36:41.829Z,2.12
2018-12-16T04:39:08.994Z,2.06
2018-12-16T04:41:36.150Z,2.17
2018-12-16T04:44:03.605Z,2.12
2018-12-16T04:46:30.790Z,2.18
2018-12-16T04:48:57.972Z,1.91
2018-12-16T04:51:25.096Z,1.85
2018-12-16T04:53:52.546Z,1.85
2018-12-16T04:56:20.464Z,1.74
2018-12-16T04:58:47.604Z,1.55
2018-12-16T05:01:15.284Z,1.42
2018-12-16T05:03:42.430Z,1.36
2018-12-16T05:06:09.809Z,1.34
2018-12-16T05:08:36.887Z,1.56
2018-12-16T05:11:03.985Z,1.37
2018-12-16T05:13:31.084Z,1.60
2018-12-16T05:15:58.337Z,1.61
2018-12-16T05:18:25.897Z,1.76
2018-12-16T05:20:53.038Z,1.87
2018-12-16T05:23:20.264Z,1.16
2018-12-16T05:25:47.440Z,2.06
2018-12-16T05:28:14.628Z,2.12
2018-12-16T05:30:41.740Z,2.09
2018-12-16T05:33:08.897Z,2.07
2018-12-16T05:35:36.011Z,2.15
2018-12-16T05:38:03.294Z,2.13
2018-12-16T05:40:30.482Z,2.15
2018-12-16T05:42:57.633Z,2.21
2018-12-16T05:45:25.012Z,2.11
2018-12-16T05:47:52.090Z,2.09
2018-12-16T05:50:20.417Z,2.20
2018-12-16T05:52:47.579Z,2.25
2018-12-16T05:55:14.695Z,2.18
2018-12-16T05:57:41.738Z,2.05
2018-12-16T06:00:08.976Z,2.12
2018-12-16T06:02:36.068Z,2.17
2018-12-16T06:05:03.228Z,2.18
2018-12-16T06:07:30.297Z,2.10
2018-12-16T06:09:57.365Z,2.03
2018-12-16T06:12:24.500Z,2.01
2018-12-16T06:14:51.607Z,2.06
2018-12-16T06:17:18.695Z,2.19
2018-12-16T06:19:45.776Z,2.21
2018-12-16T06:22:13.131Z,2.28
2018-12-16T06:24:40.224Z,2.35
2018-12-16T06:27:07.729Z,2.39
2018-12-16T06:29:34.924Z,2.44
2018-12-16T06:32:02.020Z,2.43
2018-12-16T06:34:29.104Z,2.41
2018-12-16T06:36:56.211Z,2.38
2018-12-16T06:39:23.321Z,2.25
2018-12-16T06:41:50.612Z,2.20
2018-12-16T06:44:17.823Z,2.22
2018-12-16T06:46:45.020Z,2.28
2018-12-16T06:49:12.245Z,2.32
2018-12-16T06:51:39.483Z,2.32
2018-12-16T06:54:06.816Z,2.17
2018-12-16T06:56:33.882Z,2.26
2018-12-16T06:59:00.994Z,2.37
2018-12-16T07:01:28.060Z,2.23
2018-12-16T07:03:55.128Z,2.33
2018-12-16T07:06:22.215Z,2.18
2018-12-16T07:08:49.511Z,2.13
2018-12-16T07:11:16.591Z,2.07
2018-12-16T07:13:44.207Z,2.09
2018-12-16T07:16:11.384Z,2.32
2018-12-16T07:18:38.578Z,2.30
2018-12-16T07:21:05.824Z,2.48
2018-12-16T07:23:33.911Z,2.53
2018-12-16T07:26:01.130Z,2.50
2018-12-16T07:28:28.285Z,2.46
2018-12-16T07:30:55.525Z,2.44
2018-12-16T07:33:22.648Z,2.73
2018-12-16T07:35:49.873Z,2.54
2018-12-16T07:38:17.018Z,2.58
2018-12-16T07:40:44.120Z,2.61
2018-12-16T07:43:11.327Z,2.60
2018-12-16T07:45:38.398Z,2.67
2018-12-16T07:48:05.534Z,2.71
2018-12-16T07:50:32.700Z,2.73
2018-12-16T07:52:59.832Z,2.60
2018-12-16T07:55:27.104Z,2.61
2018-12-16T07:57:54.306Z,2.30
2018-12-16T08:00:21.945Z,2.15
2018-12-16T08:02:49.136Z,1.97
2018-12-16T08:05:16.328Z,1.85
2018-12-16T08:07:43.452Z,1.77
2018-12-16T08:10:10.526Z,1.80
2018-12-16T08:12:37.663Z,2.04
2018-12-16T08:15:05.549Z,1.88
2018-12-16T08:17:32.655Z,2.03
2018-12-16T08:19:59.764Z,1.74
2018-12-16T08:22:26.884Z,1.68
2018-12-16T08:24:54.018Z,1.70
2018-12-16T08:27:21.107Z,1.91
2018-12-16T08:29:48.356Z,2.14
2018-12-16T08:32:15.477Z,2.23
2018-12-16T08:34:42.644Z,2.38
2018-12-16T08:37:10.456Z,2.40
2018-12-16T08:39:37.584Z,2.50
2018-12-16T08:42:04.802Z,2.50
2018-12-16T08:44:31.865Z,2.42
2018-12-16T08:46:59.116Z,2.38
2018-12-16T08:49:26.169Z,2.56
2018-12-16T08:51:53.333Z,2.83
2018-12-16T08:54:20.440Z,2.87
2018-12-16T08:56:48.216Z,2.53
2018-12-16T08:59:15.298Z,2.50
2018-12-16T09:01:42.494Z,2.35
2018-12-16T09:04:10.123Z,2.33
2018-12-16T09:06:37.259Z,2.72
2018-12-16T09:09:07.095Z,2.89
2018-12-16T09:11:34.276Z,2.92
2018-12-16T09:14:01.448Z,2.95
2018-12-16T09:16:28.583Z,2.93
2018-12-16T09:18:55.675Z,2.98
2018-12-16T09:21:22.821Z,3.01
2018-12-16T09:23:49.968Z,3.07
2018-12-16T09:26:17.399Z,3.31
2018-12-16T09:28:44.504Z,3.55
2018-12-16T09:31:11.595Z,3.66
2018-12-16T09:33:38.684Z,3.66
2018-12-16T09:36:05.795Z,3.56
2018-12-16T09:38:32.925Z,3.58
2018-12-16T09:41:00.204Z,3.38
2018-12-16T09:43:27.319Z,3.49
2018-12-16T09:45:55.348Z,3.60
2018-12-16T09:48:22.469Z,3.53
2018-12-16T09:50:49.758Z,3.50
2018-12-16T09:53:16.869Z,3.65
2018-12-16T09:55:44.358Z,3.87
2018-12-16T09:58:11.581Z,3.98
2018-12-16T10:00:38.698Z,3.95
2018-12-16T10:03:06.317Z,3.90
2018-12-16T10:05:33.596Z,3.91
2018-12-16T10:08:01.024Z,4.07
2018-12-16T10:10:28.811Z,3.93
2018-12-16T10:12:55.950Z,3.94
2018-12-16T10:15:23.152Z,3.96
2018-12-16T10:17:50.259Z,4.04
2018-12-16T10:20:17.347Z,4.21
2018-12-16T10:22:44.448Z,4.21
2018-12-16T10:25:11.628Z,4.34
2018-12-16T10:27:38.745Z,4.29
2018-12-16T10:30:07.836Z,3.81
2018-12-16T10:32:35.009Z,3.55
2018-12-16T10:35:02.552Z,3.41
2018-12-16T10:37:29.758Z,3.44
2018-12-16T10:39:57.042Z,3.50
2018-12-16T10:42:24.377Z,3.10
2018-12-16T10:44:51.916Z,2.88
2018-12-16T10:47:19.126Z,2.85
2018-12-16T10:49:46.250Z,2.78
2018-12-16T10:52:13.352Z,2.63
2018-12-16T10:54:40.464Z,2.80
2018-12-16T10:57:07.631Z,3.14
2018-12-16T10:59:34.753Z,3.27
2018-12-16T11:02:01.916Z,3.22
2018-12-16T11:04:29.931Z,3.15
2018-12-16T11:06:57.065Z,3.31
2018-12-16T11:09:24.153Z,3.27
2018-12-16T11:11:51.343Z,3.08
2018-12-16T11:14:18.435Z,2.98
2018-12-16T11:16:45.541Z,3.07
2018-12-16T11:19:12.652Z,3.22
2018-12-16T11:21:39.717Z,3.52
2018-12-16T11:24:06.844Z,3.61
2018-12-16T11:26:33.918Z,3.77
2018-12-16T11:29:01.052Z,3.66
2018-12-16T11:31:28.093Z,3.70
2018-12-16T11:33:55.208Z,3.82
2018-12-16T11:36:22.260Z,3.97
2018-12-16T11:38:49.381Z,4.06
2018-12-16T11:41:16.464Z,4.00
2018-12-16T11:43:43.777Z,4.06
2018-12-16T11:46:11.313Z,4.24
2018-12-16T11:48:38.485Z,4.35
2018-12-16T11:51:05.632Z,4.44
2018-12-16T11:53:32.762Z,4.47
2018-12-16T11:56:00.023Z,4.41
2018-12-16T11:58:27.138Z,4.42
2018-12-16T12:00:54.698Z,4.47
2018-12-16T12:03:21.912Z,4.36
2018-12-16T12:05:49.232Z,4.20
2018-12-16T12:08:16.392Z,4.39
2018-12-16T12:10:43.649Z,4.57
2018-12-16T12:13:10.835Z,4.45
2018-12-16T12:15:38.039Z,4.53
2018-12-16T12:18:05.159Z,4.28
2018-12-16T12:20:32.347Z,4.19
2018-12-16T12:22:59.444Z,4.47
2018-12-16T12:25:26.558Z,4.63
2018-12-16T12:27:53.903Z,4.74
2018-12-16T12:30:23.819Z,4.63
2018-12-16T12:32:51.922Z,4.41
2018-12-16T12:35:19.850Z,4.50
2018-12-16T12:37:47.826Z,4.70
2018-12-16T12:40:14.971Z,4.83
2018-12-16T12:42:42.158Z,4.89
2018-12-16T12:45:09.456Z,4.98
2018-12-16T12:47:36.662Z,4.76
2018-12-16T12:50:04.226Z,4.45
2018-12-16T12:52:31.311Z,4.64
2018-12-16T12:54:58.413Z,4.63
2018-12-16T12:57:26.596Z,4.69
2018-12-16T12:59:53.789Z,4.75
2018-12-16T13:02:21.121Z,4.91
2018-12-16T13:04:55.329Z,5.00
2018-12-16T13:07:22.485Z,5.11
2018-12-16T13:09:49.516Z,5.18
2018-12-16T13:12:16.606Z,5.22
2018-12-16T13:14:44.761Z,5.05
2018-12-16T13:17:12.072Z,4.80
2018-12-16T13:19:39.316Z,4.93
2018-12-16T13:22:06.558Z,4.87
2018-12-16T13:24:33.908Z,4.56
2018-12-16T13:27:01.365Z,4.57
2018-12-16T13:29:28.436Z,4.64
2018-12-16T13:31:55.688Z,4.67
2018-12-16T13:34:22.918Z,4.93
2018-12-16T13:36:50.031Z,4.99
2018-12-16T13:39:17.223Z,5.06
2018-12-16T13:41:44.399Z,5.02
2018-12-16T13:44:11.548Z,4.81
2018-12-16T13:46:38.919Z,4.67
2018-12-16T13:49:06.829Z,4.74
2018-12-16T13:51:34.044Z,4.97
2018-12-16T13:54:01.163Z,5.13
2018-12-16T13:56:28.404Z,5.19
2018-12-16T13:58:55.672Z,5.08
2018-12-16T14:01:22.747Z,4.75
2018-12-16T14:03:50.068Z,4.58
2018-12-16T14:06:17.145Z,4.50
2018-12-16T14:08:44.233Z,4.38
2018-12-16T14:11:11.360Z,4.40
2018-12-16T14:13:38.432Z,4.60
2018-12-16T14:16:06.148Z,4.82
2018-12-16T14:18:33.489Z,4.95
2018-12-16T14:21:01.657Z,5.02
2018-12-16T14:23:28.783Z,5.07
2018-12-16T14:25:55.988Z,5.18
2018-12-16T14:28:23.872Z,5.25
2018-12-16T14:30:51.171Z,5.13
2018-12-16T14:33:18.339Z,5.16
2018-12-16T14:35:45.537Z,5.23
2018-12-16T14:38:13.812Z,5.28
2018-12-16T14:40:40.988Z,5.27
2018-12-16T14:43:08.217Z,5.14
2018-12-16T14:45:35.372Z,5.21
2018-12-16T14:48:02.545Z,5.20
2018-12-16T14:50:30.568Z,4.81
2018-12-16T14:52:57.684Z,4.56
2018-12-16T14:55:24.994Z,4.24
2018-12-16T14:57:52.073Z,4.67
2018-12-16T15:00:19.163Z,4.92
2018-12-16T15:02:46.254Z,4.99
2018-12-16T15:05:13.389Z,3.80
2018-12-16T15:07:40.452Z,5.04
2018-12-16T15:10:09.091Z,4.89
2018-12-16T15:12:36.177Z,4.73
2018-12-16T15:15:03.544Z,4.71
2018-12-16T15:17:42.785Z,4.85
2018-12-16T15:20:07.398Z,5.06
2018-12-16T15:22:34.468Z,5.18
2018-12-16T15:25:01.565Z,5.24
2018-12-16T15:27:28.693Z,5.36
2018-12-16T15:29:55.809Z,5.43
2018-12-16T15:32:22.938Z,5.48
2018-12-16T15:34:50.009Z,5.44
2018-12-16T15:37:18.110Z,5.34
2018-12-16T15:39:45.740Z,5.34
2018-12-16T15:42:13.057Z,5.34
2018-12-16T15:44:40.180Z,5.48
2018-12-16T15:47:07.303Z,5.52
2018-12-16T15:49:34.556Z,5.57
2018-12-16T15:52:01.648Z,5.54
2018-12-16T15:54:28.770Z,5.54
2018-12-16T15:56:56.121Z,5.62
2018-12-16T15:59:23.213Z,5.48
2018-12-16T16:01:50.426Z,5.55
2018-12-16T16:04:17.492Z,5.60
2018-12-16T16:06:44.558Z,5.63
2018-12-16T16:09:11.637Z,5.67
2018-12-16T16:11:39.956Z,5.68
2018-12-16T16:14:07.252Z,5.62
2018-12-16T16:16:34.308Z,5.55
2018-12-16T16:19:01.381Z,5.66
2018-12-16T16:21:28.578Z,5.64
2018-12-16T16:23:56.103Z,5.65
2018-12-16T16:26:24.434Z,5.73
2018-12-16T16:28:58.396Z,5.75
2018-12-16T16:31:25.493Z,5.78
2018-12-16T16:33:52.711Z,5.80
2018-12-16T16:36:19.807Z,5.64
2018-12-16T16:38:46.909Z,5.70
2018-12-16T16:41:14.044Z,5.74
2018-12-16T16:43:41.136Z,5.69
2018-12-16T16:46:08.276Z,5.72
2018-12-16T16:48:35.363Z,5.72
2018-12-16T16:51:03.221Z,5.81
2018-12-16T16:53:30.380Z,5.86
2018-12-16T16:55:57.502Z,5.77
2018-12-16T16:58:24.601Z,5.75
2018-12-16T17:00:51.711Z,5.69
2018-12-16T17:03:18.804Z,5.55
2018-12-16T17:05:45.991Z,5.48
2018-12-16T17:08:13.188Z,5.48
2018-12-16T17:10:40.360Z,5.56
2018-12-16T17:13:07.549Z,5.53
2018-12-16T17:15:34.757Z,5.61
2018-12-16T17:18:02.442Z,5.62
2018-12-16T17:20:29.537Z,5.57
2018-12-16T17:22:56.777Z,5.49
2018-12-16T17:25:23.975Z,5.44
2018-12-16T17:27:51.093Z,5.28
2018-12-16T17:30:18.210Z,5.26
2018-12-16T17:32:45.413Z,5.30
2018-12-16T17:35:12.630Z,5.28
2018-12-16T17:37:39.697Z,5.18
2018-12-16T17:40:06.845Z,5.21
2018-12-16T17:42:34.054Z,5.33
2018-12-16T17:45:01.127Z,5.47
2018-12-16T17:47:28.218Z,5.51
2018-12-16T17:49:59.568Z,5.48
2018-12-16T17:52:29.712Z,5.56
2018-12-16T17:54:56.800Z,5.56
2018-12-16T17:57:23.928Z,5.53
2018-12-16T17:59:51.075Z,5.16
2018-12-16T18:02:18.337Z,4.93
2018-12-16T18:04:45.417Z,5.02
2018-12-16T18:07:12.572Z,5.19
2018-12-16T18:09:39.688Z,5.34
2018-12-16T18:12:06.788Z,5.49
2018-12-16T18:14:33.847Z,5.52
2018-12-16T18:17:02.166Z,5.52
2018-12-16T18:19:29.320Z,5.58
2018-12-16T18:21:56.606Z,5.61
2018-12-16T18:24:23.772Z,5.65
2018-12-16T18:26:51.436Z,5.66
2018-12-16T18:29:18.581Z,5.71
2018-12-16T18:31:46.099Z,5.78
2018-12-16T18:34:13.233Z,5.80
2018-12-16T18:36:40.342Z,5.79
2018-12-16T18:39:08.640Z,5.71
2018-12-16T18:41:35.927Z,5.71
2018-12-16T18:44:03.719Z,5.73
2018-12-16T18:46:31.150Z,5.78
2018-12-16T18:48:58.344Z,5.83
2018-12-16T18:51:25.453Z,5.61
2018-12-16T18:53:52.829Z,5.66
2018-12-16T18:56:19.997Z,5.71
2018-12-16T18:58:47.096Z,5.74
2018-12-16T19:01:14.945Z,5.83
2018-12-16T19:03:42.017Z,5.82
2018-12-16T19:06:10.287Z,5.85
2018-12-16T19:08:38.078Z,5.83
2018-12-16T19:11:05.236Z,5.82
2018-12-16T19:13:33.863Z,5.80
2018-12-16T19:16:01.041Z,5.87
2018-12-16T19:18:28.771Z,5.91
2018-12-16T19:20:55.883Z,5.83
2018-12-16T19:23:23.069Z,5.86
2018-12-16T19:25:50.219Z,5.88
2018-12-16T19:28:17.389Z,5.91
2018-12-16T19:30:45.366Z,5.85
2018-12-16T19:33:14.483Z,5.78
2018-12-16T19:35:41.716Z,5.82
2018-12-16T19:38:08.814Z,5.84
2018-12-16T19:40:35.906Z,5.89
2018-12-16T19:43:04.573Z,5.87
2018-12-16T19:45:35.595Z,5.83
2018-12-16T19:48:02.761Z,5.79
2018-12-16T19:50:29.842Z,5.81
2018-12-16T19:52:58.703Z,5.76
2018-12-16T19:55:26.332Z,5.79
2018-12-16T19:57:53.576Z,5.88
2018-12-16T20:00:20.741Z,5.85
2018-12-16T20:02:47.965Z,5.95
2018-12-16T20:05:20.155Z,5.96
2018-12-16T20:07:48.437Z,5.94
2018-12-16T20:10:16.220Z,5.90
2018-12-16T20:12:44.330Z,5.92
2018-12-16T20:15:11.448Z,5.91
2018-12-16T20:17:39.204Z,5.86
2018-12-16T20:20:06.937Z,5.87
2018-12-16T20:22:34.110Z,5.89
2018-12-16T20:25:01.175Z,5.95
2018-12-16T20:27:28.295Z,5.89
2018-12-16T20:29:55.394Z,5.78
2018-12-16T20:32:22.603Z,5.81
2018-12-16T20:34:50.383Z,5.78
2018-12-16T20:37:17.540Z,5.77
2018-12-16T20:39:44.878Z,5.79
2018-12-16T20:42:11.988Z,5.81
2018-12-16T20:44:39.151Z,5.88
2018-12-16T20:47:06.268Z,5.95
2018-12-16T20:49:33.439Z,5.97
2018-12-16T20:52:00.685Z,5.82
2018-12-16T20:54:27.781Z,5.79
2018-12-16T20:56:55.882Z,5.83
2018-12-16T20:59:23.043Z,5.83
2018-12-16T21:01:50.218Z,5.84
2018-12-16T21:04:17.301Z,5.88
2018-12-16T21:06:44.814Z,5.77
2018-12-16T21:09:11.985Z,5.67
2018-12-16T21:11:44.727Z,5.59
2018-12-16T21:14:17.525Z,5.30
2018-12-16T21:16:51.057Z,5.39
2018-12-16T21:19:18.729Z,5.56
2018-12-16T21:21:45.856Z,5.48
2018-12-16T21:24:13.042Z,5.23
2018-12-16T21:26:40.492Z,4.96
2018-12-16T21:29:07.674Z,5.60
2018-12-16T21:31:34.829Z,5.75
2018-12-16T21:34:02.876Z,5.76
2018-12-16T21:36:30.122Z,5.82
2018-12-16T21:38:57.313Z,5.78
2018-12-16T21:41:24.983Z,5.77
2018-12-16T21:43:52.095Z,5.75
2018-12-16T21:46:22.053Z,5.71
2018-12-16T21:48:49.159Z,5.73
2018-12-16T21:51:16.921Z,5.65
2018-12-16T21:53:44.018Z,5.64
2018-12-16T21:56:11.137Z,5.71
2018-12-16T21:58:38.450Z,5.81
2018-12-16T22:01:05.666Z,5.96
2018-12-16T22:03:32.782Z,5.94
2018-12-16T22:06:00.091Z,6.00
2018-12-16T22:08:27.956Z,5.94
2018-12-16T22:10:55.537Z,5.90
2018-12-16T22:13:22.684Z,5.90
2018-12-16T22:15:49.803Z,5.83
2018-12-16T22:18:16.987Z,5.85
2018-12-16T22:20:44.186Z,5.77
2018-12-16T22:23:11.305Z,5.75
2018-12-16T22:25:38.947Z,5.82
2018-12-16T22:28:06.016Z,5.71
2018-12-16T22:30:33.350Z,5.58
2018-12-16T22:33:01.018Z,5.53
2018-12-16T22:35:28.761Z,5.69
2018-12-16T22:37:55.924Z,5.89
2018-12-16T22:40:23.253Z,5.96
2018-12-16T22:42:51.105Z,6.42
2018-12-16T22:45:18.319Z,6.35
2018-12-16T22:47:45.456Z,6.23
2018-12-16T22:50:12.672Z,6.15
2018-12-16T22:52:39.789Z,5.98
2018-12-16T22:55:06.924Z,5.85
2018-12-16T22:57:34.030Z,5.79
2018-12-16T23:00:01.105Z,5.75
2018-12-16T23:02:28.252Z,5.61
2018-12-16T23:04:57.945Z,5.54
2018-12-16T23:07:25.023Z,5.61
2018-12-16T23:09:52.152Z,5.55
2018-12-16T23:12:20.022Z,5.67
2018-12-16T23:14:47.228Z,5.57
2018-12-16T23:17:14.335Z,5.53
2018-12-16T23:19:43.546Z,5.71
2018-12-16T23:22:11.312Z,5.77
2018-12-16T23:24:38.676Z,5.59
2018-12-16T23:27:07.104Z,5.42
2018-12-16T23:29:34.413Z,5.36
2018-12-16T23:32:01.580Z,5.39
2018-12-16T23:34:29.339Z,5.42
2018-12-16T23:36:57.932Z,5.43
2018-12-16T23:39:25.041Z,5.34
2018-12-16T23:41:52.109Z,5.33
2018-12-16T23:44:19.189Z,5.28
2018-12-16T23:46:46.318Z,5.22
2018-12-16T23:49:13.409Z,5.18
2018-12-16T23:51:40.548Z,5.16
2018-12-16T23:54:07.616Z,5.05
2018-12-16T23:56:34.668Z,5.04
2018-12-16T23:59:01.725Z,5.08
